sensor_id;sensor_type;location;lat;lon;timestamp;pressure;altitude;pressure_sealevel;temperature;humidity
13869;BME280;7004;48.206;16.402;2023-05-16T00:00:54;99274.19;;;15.95;68.42
13869;BME280;7004;48.206;16.402;2023-05-16T00:03:23;99267.34;;;15.83;69.76
13869;BME280;7004;48.206;16.402;2023-05-16T00:05:49;99271.53;;;15.66;68.91
13869;BME280;7004;48.206;16.402;2023-05-16T00:08:15;99265.75;;;16.19;67.91
13869;BME280;7004;48.206;16.402;2023-05-16T00:10:41;99265.38;;;15.85;69.40
13869;BME280;7004;48.206;16.402;2023-05-16T00:13:07;99257.53;;;15.73;68.47
13869;BME280;7004;48.206;16.402;2023-05-16T00:15:34;99255.53;;;15.95;68.69
13869;BME280;7004;48.206;16.402;2023-05-16T00:18:11;99257.09;;;15.68;67.74
13869;BME280;7004;48.206;16.402;2023-05-16T00:20:40;99246.16;;;15.91;68.33
13869;BME280;7004;48.206;16.402;2023-05-16T00:23:07;99255.81;;;16.11;66.63
13869;BME280;7004;48.206;16.402;2023-05-16T00:25:33;99258.94;;;15.78;67.21
13869;BME280;7004;48.206;16.402;2023-05-16T00:28:01;99256.41;;;15.96;66.60
13869;BME280;7004;48.206;16.402;2023-05-16T00:30:27;99260.31;;;15.91;66.38
13869;BME280;7004;48.206;16.402;2023-05-16T00:32:54;99262.28;;;15.80;68.20
13869;BME280;7004;48.206;16.402;2023-05-16T00:35:21;99260.63;;;15.59;68.28
13869;BME280;7004;48.206;16.402;2023-05-16T00:37:47;99266.38;;;15.74;68.09
13869;BME280;7004;48.206;16.402;2023-05-16T00:40:13;99262.69;;;15.65;68.89
13869;BME280;7004;48.206;16.402;2023-05-16T00:42:39;99256.94;;;15.99;67.04
13869;BME280;7004;48.206;16.402;2023-05-16T00:45:08;99254.69;;;15.94;68.63
13869;BME280;7004;48.206;16.402;2023-05-16T00:47:35;99253.88;;;15.65;68.99
13869;BME280;7004;48.206;16.402;2023-05-16T00:50:02;99250.81;;;15.69;68.08
13869;BME280;7004;48.206;16.402;2023-05-16T00:52:30;99243.50;;;15.81;68.58
13869;BME280;7004;48.206;16.402;2023-05-16T00:54:57;99246.88;;;15.83;68.45
13869;BME280;7004;48.206;16.402;2023-05-16T00:57:24;99255.69;;;15.84;67.64
13869;BME280;7004;48.206;16.402;2023-05-16T00:59:50;99251.78;;;15.88;68.36
13869;BME280;7004;48.206;16.402;2023-05-16T01:02:17;99259.63;;;15.80;67.14
13869;BME280;7004;48.206;16.402;2023-05-16T01:04:43;99255.69;;;15.93;66.88
13869;BME280;7004;48.206;16.402;2023-05-16T01:07:09;99248.28;;;15.78;68.45
13869;BME280;7004;48.206;16.402;2023-05-16T01:09:35;99241.53;;;15.44;70.31
13869;BME280;7004;48.206;16.402;2023-05-16T01:15:31;99231.84;;;15.82;68.03
13869;BME280;7004;48.206;16.402;2023-05-16T01:23:36;99250.25;;;15.76;70.86
13869;BME280;7004;48.206;16.402;2023-05-16T01:26:20;99240.56;;;15.75;68.58
13869;BME280;7004;48.206;16.402;2023-05-16T01:28:50;99244.91;;;15.76;69.43
13869;BME280;7004;48.206;16.402;2023-05-16T01:31:17;99237.19;;;15.24;72.87
13869;BME280;7004;48.206;16.402;2023-05-16T01:33:44;99239.31;;;15.59;71.85
13869;BME280;7004;48.206;16.402;2023-05-16T01:37:08;99236.34;;;15.33;72.06
13869;BME280;7004;48.206;16.402;2023-05-16T01:39:51;99248.69;;;15.63;69.83
13869;BME280;7004;48.206;16.402;2023-05-16T01:42:26;99247.41;;;15.58;70.46
13869;BME280;7004;48.206;16.402;2023-05-16T01:47:40;99240.13;;;15.79;69.42
13869;BME280;7004;48.206;16.402;2023-05-16T01:50:14;99237.34;;;15.71;69.84
13869;BME280;7004;48.206;16.402;2023-05-16T01:58:07;99220.41;;;15.72;70.13
13869;BME280;7004;48.206;16.402;2023-05-16T02:00:34;99211.09;;;15.66;68.68
13869;BME280;7004;48.206;16.402;2023-05-16T02:03:01;99211.94;;;15.47;68.75
13869;BME280;7004;48.206;16.402;2023-05-16T02:05:27;99220.19;;;15.64;70.74
13869;BME280;7004;48.206;16.402;2023-05-16T02:07:53;99218.97;;;15.39;69.28
13869;BME280;7004;48.206;16.402;2023-05-16T02:10:20;99225.97;;;15.59;69.41
13869;BME280;7004;48.206;16.402;2023-05-16T02:12:46;99237.34;;;15.71;68.72
13869;BME280;7004;48.206;16.402;2023-05-16T02:15:15;99240.25;;;15.87;68.08
13869;BME280;7004;48.206;16.402;2023-05-16T02:17:41;99237.03;;;15.45;69.90
13869;BME280;7004;48.206;16.402;2023-05-16T02:20:08;99233.56;;;15.44;68.87
13869;BME280;7004;48.206;16.402;2023-05-16T02:22:36;99224.84;;;15.71;68.62
13869;BME280;7004;48.206;16.402;2023-05-16T02:25:05;99228.34;;;15.52;69.46
13869;BME280;7004;48.206;16.402;2023-05-16T02:27:32;99224.31;;;15.78;68.96
13869;BME280;7004;48.206;16.402;2023-05-16T02:29:58;99221.50;;;15.60;70.16
13869;BME280;7004;48.206;16.402;2023-05-16T02:32:24;99217.69;;;15.43;69.59
13869;BME280;7004;48.206;16.402;2023-05-16T02:34:51;99218.53;;;15.43;71.27
13869;BME280;7004;48.206;16.402;2023-05-16T02:37:17;99218.53;;;15.53;69.87
13869;BME280;7004;48.206;16.402;2023-05-16T02:39:43;99230.44;;;15.59;69.96
13869;BME280;7004;48.206;16.402;2023-05-16T02:42:09;99221.06;;;15.84;68.68
13869;BME280;7004;48.206;16.402;2023-05-16T02:44:36;99224.84;;;15.62;69.20
13869;BME280;7004;48.206;16.402;2023-05-16T02:47:02;99224.56;;;15.75;68.27
13869;BME280;7004;48.206;16.402;2023-05-16T02:49:28;99225.00;;;15.21;69.22
13869;BME280;7004;48.206;16.402;2023-05-16T02:51:54;99212.66;;;15.59;68.03
13869;BME280;7004;48.206;16.402;2023-05-16T02:54:20;99212.78;;;15.38;69.73
13869;BME280;7004;48.206;16.402;2023-05-16T02:56:46;99194.28;;;15.56;68.77
13869;BME280;7004;48.206;16.402;2023-05-16T02:59:12;99196.38;;;15.43;68.54
13869;BME280;7004;48.206;16.402;2023-05-16T03:01:38;99192.19;;;15.50;68.93
13869;BME280;7004;48.206;16.402;2023-05-16T03:04:05;99193.75;;;15.23;69.44
13869;BME280;7004;48.206;16.402;2023-05-16T03:06:31;99196.41;;;15.33;68.69
13869;BME280;7004;48.206;16.402;2023-05-16T03:08:57;99191.91;;;15.43;69.29
13869;BME280;7004;48.206;16.402;2023-05-16T03:11:23;99195.53;;;15.81;67.61
13869;BME280;7004;48.206;16.402;2023-05-16T03:13:51;99182.06;;;15.63;69.71
13869;BME280;7004;48.206;16.402;2023-05-16T03:16:17;99183.78;;;15.35;70.40
13869;BME280;7004;48.206;16.402;2023-05-16T03:18:43;99180.84;;;15.09;71.19
13869;BME280;7004;48.206;16.402;2023-05-16T03:21:09;99183.09;;;15.23;71.24
13869;BME280;7004;48.206;16.402;2023-05-16T03:23:36;99190.63;;;14.89;71.96
13869;BME280;7004;48.206;16.402;2023-05-16T03:26:02;99180.28;;;15.44;70.55
13869;BME280;7004;48.206;16.402;2023-05-16T03:28:28;99176.78;;;15.34;70.68
13869;BME280;7004;48.206;16.402;2023-05-16T03:30:55;99171.84;;;15.59;68.80
13869;BME280;7004;48.206;16.402;2023-05-16T03:33:20;99166.84;;;15.36;70.78
13869;BME280;7004;48.206;16.402;2023-05-16T03:35:47;99173.56;;;14.92;72.76
13869;BME280;7004;48.206;16.402;2023-05-16T03:38:13;99186.47;;;15.25;72.71
13869;BME280;7004;48.206;16.402;2023-05-16T03:40:39;99194.16;;;15.28;73.07
13869;BME280;7004;48.206;16.402;2023-05-16T03:43:05;99189.81;;;15.37;72.97
13869;BME280;7004;48.206;16.402;2023-05-16T03:45:31;99192.06;;;15.32;72.52
13869;BME280;7004;48.206;16.402;2023-05-16T03:47:58;99188.00;;;15.28;73.57
13869;BME280;7004;48.206;16.402;2023-05-16T03:50:24;99195.00;;;15.29;74.29
13869;BME280;7004;48.206;16.402;2023-05-16T03:52:50;99189.53;;;15.40;75.24
13869;BME280;7004;48.206;16.402;2023-05-16T03:55:19;99200.59;;;15.16;75.24
13869;BME280;7004;48.206;16.402;2023-05-16T03:57:45;99215.59;;;15.17;76.05
13869;BME280;7004;48.206;16.402;2023-05-16T04:00:13;99227.22;;;15.16;76.25
13869;BME280;7004;48.206;16.402;2023-05-16T04:02:39;99224.41;;;15.08;77.08
13869;BME280;7004;48.206;16.402;2023-05-16T04:05:07;99210.81;;;15.01;77.62
13869;BME280;7004;48.206;16.402;2023-05-16T04:07:35;99197.84;;;14.68;nan
13869;BME280;7004;48.206;16.402;2023-05-16T04:10:03;99199.75;;;15.06;79.28
13869;BME280;7004;48.206;16.402;2023-05-16T04:12:30;99202.94;;;14.90;80.10
13869;BME280;7004;48.206;16.402;2023-05-16T04:14:56;99193.72;;;15.04;79.78
13869;BME280;7004;48.206;16.402;2023-05-16T04:17:22;99180.13;;;14.88;81.37
13869;BME280;7004;48.206;16.402;2023-05-16T04:19:48;99177.91;;;15.02;80.34
13869;BME280;7004;48.206;16.402;2023-05-16T04:22:14;99184.22;;;15.31;78.29
13869;BME280;7004;48.206;16.402;2023-05-16T04:24:40;99196.00;;;15.28;78.18
13869;BME280;7004;48.206;16.402;2023-05-16T04:27:07;99197.66;;;15.39;77.74
13869;BME280;7004;48.206;16.402;2023-05-16T04:29:34;99200.88;;;15.33;79.44
13869;BME280;7004;48.206;16.402;2023-05-16T04:32:01;99192.31;;;15.48;78.75
13869;BME280;7004;48.206;16.402;2023-05-16T04:34:27;99205.50;;;15.40;80.07
13869;BME280;7004;48.206;16.402;2023-05-16T04:36:53;99202.97;;;15.58;79.97
13869;BME280;7004;48.206;16.402;2023-05-16T04:39:20;99207.75;;;15.64;77.76
13869;BME280;7004;48.206;16.402;2023-05-16T04:41:46;99215.44;;;15.48;79.95
13869;BME280;7004;48.206;16.402;2023-05-16T04:44:12;99218.94;;;15.68;78.08
13869;BME280;7004;48.206;16.402;2023-05-16T04:46:39;99229.91;;;15.65;78.92
13869;BME280;7004;48.206;16.402;2023-05-16T04:49:06;99236.63;;;15.69;78.01
13869;BME280;7004;48.206;16.402;2023-05-16T04:51:33;99251.50;;;15.81;78.99
13869;BME280;7004;48.206;16.402;2023-05-16T04:53:59;99260.75;;;15.87;79.10
13869;BME280;7004;48.206;16.402;2023-05-16T04:56:25;99256.81;;;16.01;78.21
13869;BME280;7004;48.206;16.402;2023-05-16T04:58:52;99253.16;;;16.02;78.93
13869;BME280;7004;48.206;16.402;2023-05-16T05:01:19;99251.97;;;16.24;79.26
13869;BME280;7004;48.206;16.402;2023-05-16T05:03:45;99243.69;;;16.27;79.38
13869;BME280;7004;48.206;16.402;2023-05-16T05:06:12;99242.16;;;16.24;78.66
13869;BME280;7004;48.206;16.402;2023-05-16T05:08:38;99239.81;;;16.02;80.62
13869;BME280;7004;48.206;16.402;2023-05-16T05:11:04;99241.47;;;16.22;81.16
13869;BME280;7004;48.206;16.402;2023-05-16T05:13:30;99237.03;;;15.93;82.21
13869;BME280;7004;48.206;16.402;2023-05-16T05:15:57;99224.25;;;16.07;83.00
13869;BME280;7004;48.206;16.402;2023-05-16T05:18:23;99224.41;;;15.66;78.23
13869;BME280;7004;48.206;16.402;2023-05-16T05:20:49;99230.34;;;15.70;73.23
13869;BME280;7004;48.206;16.402;2023-05-16T05:23:17;99227.28;;;16.22;74.98
13869;BME280;7004;48.206;16.402;2023-05-16T05:25:44;99250.38;;;16.41;74.86
13869;BME280;7004;48.206;16.402;2023-05-16T05:28:11;99256.47;;;16.23;73.98
13869;BME280;7004;48.206;16.402;2023-05-16T05:30:36;99267.22;;;16.41;71.26
13869;BME280;7004;48.206;16.402;2023-05-16T05:33:03;99272.72;;;16.67;68.16
13869;BME280;7004;48.206;16.402;2023-05-16T05:35:29;99267.81;;;16.63;76.75
13869;BME280;7004;48.206;16.402;2023-05-16T05:37:55;99265.41;;;16.79;68.35
13869;BME280;7004;48.206;16.402;2023-05-16T05:40:21;99257.78;;;16.47;71.06
13869;BME280;7004;48.206;16.402;2023-05-16T05:42:47;99262.28;;;16.46;71.76
13869;BME280;7004;48.206;16.402;2023-05-16T05:45:14;99256.91;;;16.56;71.57
13869;BME280;7004;48.206;16.402;2023-05-16T05:47:41;99254.94;;;16.58;71.17
13869;BME280;7004;48.206;16.402;2023-05-16T05:50:08;99246.38;;;16.54;67.25
13869;BME280;7004;48.206;16.402;2023-05-16T05:52:37;99255.44;;;16.34;66.74
13869;BME280;7004;48.206;16.402;2023-05-16T05:55:04;99254.31;;;16.74;67.26
13869;BME280;7004;48.206;16.402;2023-05-16T05:57:30;99248.41;;;16.70;68.31
13869;BME280;7004;48.206;16.402;2023-05-16T05:59:56;99258.59;;;16.94;68.71
13869;BME280;7004;48.206;16.402;2023-05-16T06:02:22;99252.91;;;16.79;67.87
13869;BME280;7004;48.206;16.402;2023-05-16T06:04:48;99253.00;;;16.50;68.57
13869;BME280;7004;48.206;16.402;2023-05-16T06:07:14;99245.81;;;16.60;67.47
13869;BME280;7004;48.206;16.402;2023-05-16T06:09:42;99248.56;;;16.69;67.78
13869;BME280;7004;48.206;16.402;2023-05-16T06:12:08;99253.56;;;16.07;68.56
13869;BME280;7004;48.206;16.402;2023-05-16T06:14:34;99246.28;;;15.99;68.92
13869;BME280;7004;48.206;16.402;2023-05-16T06:17:01;99241.03;;;16.54;68.34
13869;BME280;7004;48.206;16.402;2023-05-16T06:19:27;99249.47;;;16.22;69.50
13869;BME280;7004;48.206;16.402;2023-05-16T06:21:53;99247.47;;;16.62;67.48
13869;BME280;7004;48.206;16.402;2023-05-16T06:24:19;99240.72;;;16.40;69.36
13869;BME280;7004;48.206;16.402;2023-05-16T06:26:45;99237.41;;;16.55;70.36
13869;BME280;7004;48.206;16.402;2023-05-16T06:29:15;99237.56;;;16.44;72.37
13869;BME280;7004;48.206;16.402;2023-05-16T06:31:43;99234.75;;;16.55;71.23
13869;BME280;7004;48.206;16.402;2023-05-16T06:34:08;99244.22;;;16.68;70.11
13869;BME280;7004;48.206;16.402;2023-05-16T06:36:35;99241.09;;;16.72;70.62
13869;BME280;7004;48.206;16.402;2023-05-16T06:39:02;99244.78;;;16.71;70.88
13869;BME280;7004;48.206;16.402;2023-05-16T06:41:28;99251.94;;;16.71;71.73
13869;BME280;7004;48.206;16.402;2023-05-16T06:43:54;99235.94;;;16.71;70.78
13869;BME280;7004;48.206;16.402;2023-05-16T06:46:20;99242.22;;;16.79;69.83
13869;BME280;7004;48.206;16.402;2023-05-16T06:48:46;99238.84;;;17.05;69.07
13869;BME280;7004;48.206;16.402;2023-05-16T06:51:12;99243.56;;;17.11;70.66
13869;BME280;7004;48.206;16.402;2023-05-16T06:53:38;99239.00;;;17.21;71.69
13869;BME280;7004;48.206;16.402;2023-05-16T06:56:05;99234.81;;;17.19;73.20
13869;BME280;7004;48.206;16.402;2023-05-16T06:58:31;99239.63;;;17.33;72.91
13869;BME280;7004;48.206;16.402;2023-05-16T07:00:57;99236.34;;;17.21;73.14
13869;BME280;7004;48.206;16.402;2023-05-16T07:03:23;99231.53;;;17.07;70.74
13869;BME280;7004;48.206;16.402;2023-05-16T07:05:49;99243.78;;;16.72;69.13
13869;BME280;7004;48.206;16.402;2023-05-16T07:08:17;99243.28;;;17.14;68.27
13869;BME280;7004;48.206;16.402;2023-05-16T07:10:43;99237.25;;;17.30;68.74
13869;BME280;7004;48.206;16.402;2023-05-16T07:13:09;99242.75;;;17.11;66.50
13869;BME280;7004;48.206;16.402;2023-05-16T07:15:36;99244.72;;;17.09;67.71
13869;BME280;7004;48.206;16.402;2023-05-16T07:18:02;99247.38;;;17.09;68.12
13869;BME280;7004;48.206;16.402;2023-05-16T07:20:28;99248.59;;;17.14;66.42
13869;BME280;7004;48.206;16.402;2023-05-16T07:22:54;99255.97;;;16.75;67.63
13869;BME280;7004;48.206;16.402;2023-05-16T07:25:23;99245.78;;;16.98;67.30
13869;BME280;7004;48.206;16.402;2023-05-16T07:27:49;99245.97;;;16.49;67.93
13869;BME280;7004;48.206;16.402;2023-05-16T07:30:16;99253.69;;;16.90;67.02
13869;BME280;7004;48.206;16.402;2023-05-16T07:32:42;99254.88;;;16.68;68.65
13869;BME280;7004;48.206;16.402;2023-05-16T07:35:09;99262.44;;;16.72;68.93
13869;BME280;7004;48.206;16.402;2023-05-16T07:37:35;99254.56;;;16.43;71.27
13869;BME280;7004;48.206;16.402;2023-05-16T07:40:02;99264.47;;;16.23;70.32
13869;BME280;7004;48.206;16.402;2023-05-16T07:42:29;99266.00;;;16.26;69.98
13869;BME280;7004;48.206;16.402;2023-05-16T07:44:55;99275.56;;;16.19;70.66
13869;BME280;7004;48.206;16.402;2023-05-16T07:47:21;99264.72;;;16.67;70.64
13869;BME280;7004;48.206;16.402;2023-05-16T07:49:47;99269.59;;;16.44;70.44
13869;BME280;7004;48.206;16.402;2023-05-16T07:52:13;99270.69;;;16.51;70.54
13869;BME280;7004;48.206;16.402;2023-05-16T07:54:40;99273.03;;;16.64;70.40
13869;BME280;7004;48.206;16.402;2023-05-16T07:57:06;99279.22;;;16.55;73.48
13869;BME280;7004;48.206;16.402;2023-05-16T07:59:32;99294.41;;;15.98;74.05
13869;BME280;7004;48.206;16.402;2023-05-16T08:01:58;99291.22;;;16.41;73.47
13869;BME280;7004;48.206;16.402;2023-05-16T08:04:24;99295.38;;;15.87;73.69
13869;BME280;7004;48.206;16.402;2023-05-16T08:06:50;99300.84;;;16.05;74.51
13869;BME280;7004;48.206;16.402;2023-05-16T08:09:16;99309.25;;;16.29;75.36
13869;BME280;7004;48.206;16.402;2023-05-16T08:11:43;99322.28;;;16.13;76.66
13869;BME280;7004;48.206;16.402;2023-05-16T08:14:12;99325.19;;;16.49;75.92
13869;BME280;7004;48.206;16.402;2023-05-16T08:16:38;99328.25;;;16.54;78.73
13869;BME280;7004;48.206;16.402;2023-05-16T08:19:04;99337.50;;;16.50;79.28
13869;BME280;7004;48.206;16.402;2023-05-16T08:21:30;99342.09;;;16.67;79.74
13869;BME280;7004;48.206;16.402;2023-05-16T08:23:57;99347.56;;;16.75;81.07
13869;BME280;7004;48.206;16.402;2023-05-16T08:26:23;99350.59;;;16.53;81.18
13869;BME280;7004;48.206;16.402;2023-05-16T08:28:49;99362.88;;;16.16;83.82
13869;BME280;7004;48.206;16.402;2023-05-16T08:31:16;99357.38;;;16.37;82.95
13869;BME280;7004;48.206;16.402;2023-05-16T08:33:42;99351.47;;;16.34;84.57
13869;BME280;7004;48.206;16.402;2023-05-16T08:36:11;99352.88;;;16.19;88.49
13869;BME280;7004;48.206;16.402;2023-05-16T08:38:37;99352.63;;;16.22;88.78
13869;BME280;7004;48.206;16.402;2023-05-16T08:41:03;99354.41;;;16.41;87.74
13869;BME280;7004;48.206;16.402;2023-05-16T08:43:29;99351.38;;;15.97;90.40
13869;BME280;7004;48.206;16.402;2023-05-16T08:45:55;99346.88;;;15.87;92.66
13869;BME280;7004;48.206;16.402;2023-05-16T08:48:23;99348.53;;;16.08;91.35
13869;BME280;7004;48.206;16.402;2023-05-16T08:50:49;99350.78;;;16.22;92.52
13869;BME280;7004;48.206;16.402;2023-05-16T08:53:21;99345.88;;;15.59;95.92
13869;BME280;7004;48.206;16.402;2023-05-16T08:55:52;99338.56;;;15.51;97.91
13869;BME280;7004;48.206;16.402;2023-05-16T08:58:19;99336.03;;;15.60;97.44
13869;BME280;7004;48.206;16.402;2023-05-16T09:00:46;99332.22;;;15.33;98.97
13869;BME280;7004;48.206;16.402;2023-05-16T09:03:13;99319.56;;;15.16;97.14
13869;BME280;7004;48.206;16.402;2023-05-16T09:05:40;99303.91;;;15.42;97.25
13869;BME280;7004;48.206;16.402;2023-05-16T09:08:06;99303.91;;;15.32;98.21
13869;BME280;7004;48.206;16.402;2023-05-16T09:10:32;99301.69;;;15.57;96.11
13869;BME280;7004;48.206;16.402;2023-05-16T09:12:58;99298.06;;;15.77;96.40
13869;BME280;7004;48.206;16.402;2023-05-16T09:15:31;99302.38;;;15.49;97.29
13869;BME280;7004;48.206;16.402;2023-05-16T09:17:59;99294.84;;;15.83;96.06
13869;BME280;7004;48.206;16.402;2023-05-16T09:20:26;99285.44;;;15.79;95.99
13869;BME280;7004;48.206;16.402;2023-05-16T09:22:55;99273.22;;;15.96;95.45
13869;BME280;7004;48.206;16.402;2023-05-16T09:25:25;99270.44;;;15.78;95.55
13869;BME280;7004;48.206;16.402;2023-05-16T09:27:55;99269.44;;;15.60;97.99
13869;BME280;7004;48.206;16.402;2023-05-16T09:30:27;99278.56;;;15.86;95.25
13869;BME280;7004;48.206;16.402;2023-05-16T09:32:54;99270.56;;;15.96;94.60
13869;BME280;7004;48.206;16.402;2023-05-16T09:35:21;99271.34;;;16.16;94.14
13869;BME280;7004;48.206;16.402;2023-05-16T09:37:49;99269.25;;;15.22;98.17
13869;BME280;7004;48.206;16.402;2023-05-16T09:40:24;99264.25;;;15.87;95.93
13869;BME280;7004;48.206;16.402;2023-05-16T09:43:04;99253.59;;;15.58;99.13
13869;BME280;7004;48.206;16.402;2023-05-16T09:45:32;99248.28;;;15.78;96.79
13869;BME280;7004;48.206;16.402;2023-05-16T09:48:07;99250.06;;;16.06;93.97
13869;BME280;7004;48.206;16.402;2023-05-16T09:50:35;99251.59;;;16.09;94.06
13869;BME280;7004;48.206;16.402;2023-05-16T09:53:02;99260.03;;;15.85;96.63
13869;BME280;7004;48.206;16.402;2023-05-16T09:55:30;99256.09;;;16.08;96.71
13869;BME280;7004;48.206;16.402;2023-05-16T09:57:57;99267.03;;;16.05;96.13
13869;BME280;7004;48.206;16.402;2023-05-16T10:00:29;99276.16;;;16.03;96.28
13869;BME280;7004;48.206;16.402;2023-05-16T10:02:57;99273.47;;;16.22;94.98
13869;BME280;7004;48.206;16.402;2023-05-16T10:05:26;99283.03;;;15.47;99.67
13869;BME280;7004;48.206;16.402;2023-05-16T10:07:56;99282.78;;;15.99;97.05
13869;BME280;7004;48.206;16.402;2023-05-16T10:10:24;99285.31;;;15.90;98.01
13869;BME280;7004;48.206;16.402;2023-05-16T10:12:51;99300.34;;;16.38;94.90
13869;BME280;7004;48.206;16.402;2023-05-16T10:15:18;99298.28;;;16.23;95.17
13869;BME280;7004;48.206;16.402;2023-05-16T10:17:50;99308.69;;;16.16;96.03
13869;BME280;7004;48.206;16.402;2023-05-16T10:20:20;99315.16;;;15.84;96.54
13869;BME280;7004;48.206;16.402;2023-05-16T10:22:49;99316.66;;;16.16;96.09
13869;BME280;7004;48.206;16.402;2023-05-16T10:25:24;99306.19;;;16.05;97.85
13869;BME280;7004;48.206;16.402;2023-05-16T10:27:51;99303.81;;;16.02;97.39
13869;BME280;7004;48.206;16.402;2023-05-16T10:30:18;99307.53;;;16.28;95.67
13869;BME280;7004;48.206;16.402;2023-05-16T10:32:45;99316.53;;;16.17;95.96
13869;BME280;7004;48.206;16.402;2023-05-16T10:35:12;99313.22;;;15.96;97.72
13869;BME280;7004;48.206;16.402;2023-05-16T10:37:39;99310.69;;;16.04;97.63
13869;BME280;7004;48.206;16.402;2023-05-16T10:40:06;99305.75;;;16.19;96.81
13869;BME280;7004;48.206;16.402;2023-05-16T10:42:33;99312.22;;;16.16;97.55
13869;BME280;7004;48.206;16.402;2023-05-16T10:45:18;99314.72;;;16.18;97.97
13869;BME280;7004;48.206;16.402;2023-05-16T10:48:00;99316.00;;;16.14;97.65
13869;BME280;7004;48.206;16.402;2023-05-16T10:50:43;99311.59;;;16.42;96.81
13869;BME280;7004;48.206;16.402;2023-05-16T10:53:30;99308.09;;;16.32;96.53
13869;BME280;7004;48.206;16.402;2023-05-16T11:01:34;99300.69;;;16.16;97.72
13869;BME280;7004;48.206;16.402;2023-05-16T11:04:08;99307.84;;;16.15;97.22
13869;BME280;7004;48.206;16.402;2023-05-16T11:12:01;99319.47;;;15.56;100.00
13869;BME280;7004;48.206;16.402;2023-05-16T11:17:14;99313.22;;;16.06;98.81
13869;BME280;7004;48.206;16.402;2023-05-16T11:19:56;99307.41;;;16.20;98.08
13869;BME280;7004;48.206;16.402;2023-05-16T11:22:26;99302.81;;;16.12;98.27
13869;BME280;7004;48.206;16.402;2023-05-16T11:25:03;99297.34;;;15.85;100.00
13869;BME280;7004;48.206;16.402;2023-05-16T11:27:33;99293.66;;;16.25;98.86
13869;BME280;7004;48.206;16.402;2023-05-16T11:32:41;99276.16;;;15.64;100.00
13869;BME280;7004;48.206;16.402;2023-05-16T11:35:11;99278.56;;;15.86;100.00
13869;BME280;7004;48.206;16.402;2023-05-16T11:37:37;99272.81;;;15.62;100.00
13869;BME280;7004;48.206;16.402;2023-05-16T11:40:09;99269.75;;;15.76;100.00
13869;BME280;7004;48.206;16.402;2023-05-16T11:42:47;99273.91;;;16.08;99.36
13869;BME280;7004;48.206;16.402;2023-05-16T11:45:19;99272.34;;;16.15;98.15
13869;BME280;7004;48.206;16.402;2023-05-16T11:47:47;99270.69;;;15.65;100.00
13869;BME280;7004;48.206;16.402;2023-05-16T11:50:19;99260.13;;;16.12;99.04
13869;BME280;7004;48.206;16.402;2023-05-16T11:52:51;99270.84;;;15.93;100.00
13869;BME280;7004;48.206;16.402;2023-05-16T11:55:21;99253.66;;;16.25;99.58
13869;BME280;7004;48.206;16.402;2023-05-16T11:57:52;99262.97;;;16.01;100.00
13869;BME280;7004;48.206;16.402;2023-05-16T12:00:21;99256.53;;;16.04;99.61
13869;BME280;7004;48.206;16.402;2023-05-16T12:02:49;99257.69;;;16.29;99.34
13869;BME280;7004;48.206;16.402;2023-05-16T12:05:18;99251.38;;;16.40;98.71
13869;BME280;7004;48.206;16.402;2023-05-16T12:07:46;99247.72;;;16.41;99.30
13869;BME280;7004;48.206;16.402;2023-05-16T12:10:14;99238.75;;;16.32;100.00
13869;BME280;7004;48.206;16.402;2023-05-16T12:12:44;99236.81;;;16.62;98.78
13869;BME280;7004;48.206;16.402;2023-05-16T12:15:11;99241.44;;;16.32;100.00
13869;BME280;7004;48.206;16.402;2023-05-16T12:17:39;99238.56;;;16.06;100.00
13869;BME280;7004;48.206;16.402;2023-05-16T12:20:08;99231.44;;;15.77;100.00
13869;BME280;7004;48.206;16.402;2023-05-16T12:22:40;99217.66;;;16.38;98.11
13869;BME280;7004;48.206;16.402;2023-05-16T12:25:32;99226.09;;;16.34;98.97
13869;BME280;7004;48.206;16.402;2023-05-16T12:28:02;99231.44;;;15.48;100.00
13869;BME280;7004;48.206;16.402;2023-05-16T12:30:31;99225.03;;;16.54;98.90
13869;BME280;7004;48.206;16.402;2023-05-16T12:32:59;99222.69;;;16.42;98.15
13869;BME280;7004;48.206;16.402;2023-05-16T12:35:30;99219.63;;;16.36;98.82
13869;BME280;7004;48.206;16.402;2023-05-16T12:37:57;99208.06;;;16.18;100.00
13869;BME280;7004;48.206;16.402;2023-05-16T12:40:23;99202.84;;;16.54;98.73
13869;BME280;7004;48.206;16.402;2023-05-16T12:42:53;99195.72;;;16.82;98.79
13869;BME280;7004;48.206;16.402;2023-05-16T12:45:20;99185.63;;;16.76;99.15
13869;BME280;7004;48.206;16.402;2023-05-16T12:47:46;99190.34;;;16.27;100.00
13869;BME280;7004;48.206;16.402;2023-05-16T12:50:15;99186.63;;;16.10;100.00
13869;BME280;7004;48.206;16.402;2023-05-16T12:52:50;99195.25;;;15.84;100.00
13869;BME280;7004;48.206;16.402;2023-05-16T12:55:21;99188.13;;;15.75;100.00
13869;BME280;7004;48.206;16.402;2023-05-16T12:57:49;99188.22;;;15.64;100.00
13869;BME280;7004;48.206;16.402;2023-05-16T13:00:18;99204.78;;;15.38;100.00
13869;BME280;7004;48.206;16.402;2023-05-16T13:02:46;99187.31;;;16.12;100.00
13869;BME280;7004;48.206;16.402;2023-05-16T13:05:13;99187.44;;;16.10;100.00
13869;BME280;7004;48.206;16.402;2023-05-16T13:07:40;99187.50;;;16.01;100.00
13869;BME280;7004;48.206;16.402;2023-05-16T13:10:08;99183.25;;;16.08;100.00
13869;BME280;7004;48.206;16.402;2023-05-16T13:12:39;99184.19;;;15.50;100.00
13869;BME280;7004;48.206;16.402;2023-05-16T13:15:08;99177.03;;;15.50;100.00
13869;BME280;7004;48.206;16.402;2023-05-16T13:17:36;99172.41;;;15.43;100.00
13869;BME280;7004;48.206;16.402;2023-05-16T13:20:03;99151.28;;;15.41;100.00
13869;BME280;7004;48.206;16.402;2023-05-16T13:22:40;99149.59;;;15.69;100.00
13869;BME280;7004;48.206;16.402;2023-05-16T13:25:08;99132.88;;;16.14;100.00
13869;BME280;7004;48.206;16.402;2023-05-16T13:27:37;99143.91;;;15.82;100.00
13869;BME280;7004;48.206;16.402;2023-05-16T13:30:04;99145.00;;;15.89;100.00
13869;BME280;7004;48.206;16.402;2023-05-16T13:32:30;99145.75;;;15.82;100.00
13869;BME280;7004;48.206;16.402;2023-05-16T13:34:56;99156.72;;;15.30;100.00
13869;BME280;7004;48.206;16.402;2023-05-16T13:37:23;99156.31;;;15.35;100.00